Карточка аэропорта ULAA

Внимание!
Информация на этой странице в стадии наполнения.
Если вы не увидели какой-то информации, или заметили неточность - пожалуйста сообщите нам!
Спасибо!
Команда XR-STAFF
Название аэропортаТалаги
Название аэропорта (англ.)Talagi
Превышение62 ft. (18.9 m.)
Координаты64°36.018', 40°43.002'
Высота перехода3000FT
Эшелон переходаQFE>=760mm:FL040; QFE<760=>733:FL050; QFE<733:FL060
Коды ответчика3120-3127
Зона ОрВДСанкт-Петербург РПИ (ULLL)
Данные METARULAA 232030Z 01003MPS 310V050 9999 -SHSN OVC016CB 00/M01 Q1007 R08/290060 NOSIG RMK QFE754/1006
Проноз погоды (TAF)ULAA 232000Z 2321/2421 36004MPS 9999 BKN016CB TEMPO 2321/2406 02003G09MPS 6000 -SHSN FEW005 BKN011CB BECMG 2406/2407 01003MPS TEMPO 2407/2421 6000 -SHSNRA BKN012CB
NOTAMshow/hide NOTAM
AWOS   TABLE

Информация о ВПП


Диспетчерские позиции

Позывной Наименование органа УВД Частота
ULAA_APPАрхангельск-Подход122.0
ULAA_TWRАрхангельск-Вышка121.8



Спутниковое изображение